createdAt,value
2017-11-22T00:02:53.549Z,99468.88
2017-11-22T00:05:54.919Z,99461.81
2017-11-22T00:08:56.295Z,99467.52
2017-11-22T00:11:57.697Z,99435.63
2017-11-22T00:14:59.163Z,99454.64
2017-11-22T00:18:00.690Z,99460.99
2017-11-22T00:21:02.805Z,99448.16
2017-11-22T00:24:04.260Z,99449.47
2017-11-22T00:27:05.657Z,99462.79
2017-11-22T00:30:07.920Z,99445.14
2017-11-22T00:33:10.097Z,99436.18
2017-11-22T00:36:12.329Z,99438.19
2017-11-22T00:39:13.761Z,99437.60
2017-11-22T00:42:15.198Z,99427.12
2017-11-22T00:45:16.673Z,99441.70
2017-11-22T00:48:18.121Z,99426.69
2017-11-22T00:51:19.609Z,99435.38
2017-11-22T00:54:21.038Z,99437.06
2017-11-22T00:57:22.495Z,99444.03
2017-11-22T01:00:23.901Z,99442.66
2017-11-22T01:03:26.096Z,99455.48
2017-11-22T01:06:27.588Z,99432.19
2017-11-22T01:09:29.013Z,99435.41
2017-11-22T01:12:30.483Z,99429.48
2017-11-22T01:15:31.878Z,99431.09
2017-11-22T01:18:34.085Z,99430.11
2017-11-22T01:21:35.527Z,99423.16
2017-11-22T01:24:37.009Z,99422.17
2017-11-22T01:27:38.436Z,99415.17
2017-11-22T01:30:39.916Z,99424.53
2017-11-22T01:33:41.464Z,99421.17
2017-11-22T01:36:42.913Z,99414.66
2017-11-22T01:39:44.345Z,99416.52
2017-11-22T01:42:45.856Z,99417.34
2017-11-22T01:45:48.100Z,99421.39
2017-11-22T01:48:49.547Z,99428.27
2017-11-22T01:51:51.030Z,99428.41
2017-11-22T01:54:52.501Z,99426.36
2017-11-22T01:57:54.708Z,99417.72
2017-11-22T02:00:56.179Z,99421.52
2017-11-22T02:03:57.563Z,99421.70
2017-11-22T02:06:59.775Z,99429.74
2017-11-22T02:10:01.204Z,99401.04
2017-11-22T02:13:03.500Z,99404.63
2017-11-22T02:16:04.916Z,99391.87
2017-11-22T02:19:07.105Z,99404.05
2017-11-22T02:22:08.565Z,99397.59
2017-11-22T02:25:09.989Z,99387.68
2017-11-22T02:28:12.171Z,99378.44
2017-11-22T02:31:13.629Z,99371.84
2017-11-22T02:34:15.115Z,99389.20
2017-11-22T02:37:16.576Z,99365.62
2017-11-22T02:40:18.802Z,99375.03
2017-11-22T02:43:20.333Z,99365.58
2017-11-22T02:46:22.567Z,99364.99
2017-11-22T02:49:24.040Z,99359.33
2017-11-22T02:52:25.493Z,99372.78
2017-11-22T02:55:27.684Z,99379.07
2017-11-22T02:58:29.840Z,99377.05
2017-11-22T03:01:31.196Z,99370.75
2017-11-22T03:04:32.609Z,99373.33
2017-11-22T03:07:33.996Z,99366.97
2017-11-22T03:10:35.405Z,99359.34
2017-11-22T03:13:36.822Z,99353.16
2017-11-22T03:16:39.017Z,99351.27
2017-11-22T03:19:40.430Z,99360.92
2017-11-22T03:22:41.825Z,99340.72
2017-11-22T03:25:43.263Z,99356.87
2017-11-22T03:28:44.651Z,99360.66
2017-11-22T03:31:46.076Z,99357.89
2017-11-22T03:34:47.481Z,99358.55
2017-11-22T03:37:48.936Z,99349.35
2017-11-22T03:40:50.364Z,99352.92
2017-11-22T03:43:51.826Z,99347.55
2017-11-22T03:46:53.336Z,99351.02
2017-11-22T03:50:00.759Z,99348.90
2017-11-22T03:53:08.388Z,99336.34
2017-11-22T03:56:09.819Z,99340.21
2017-11-22T03:59:11.255Z,99346.89
2017-11-22T04:02:12.949Z,99336.41
2017-11-22T04:05:14.403Z,99336.20
2017-11-22T04:08:17.780Z,99329.70
2017-11-22T04:11:21.195Z,99324.75
2017-11-22T04:14:22.669Z,99327.92
2017-11-22T04:17:24.880Z,99324.95
2017-11-22T04:20:32.604Z,99320.67
2017-11-22T04:23:34.039Z,99325.97
2017-11-22T04:26:35.589Z,99331.56
2017-11-22T04:29:37.025Z,99323.98
2017-11-22T04:32:38.413Z,99322.45
2017-11-22T04:35:39.842Z,99309.27
2017-11-22T04:38:41.250Z,99314.77
2017-11-22T04:41:42.744Z,99303.28
2017-11-22T04:44:44.164Z,99309.09
2017-11-22T04:47:45.665Z,99312.88
2017-11-22T04:50:47.087Z,99313.89
2017-11-22T04:53:49.253Z,99320.23
2017-11-22T04:56:51.357Z,99320.69
2017-11-22T04:59:52.838Z,99329.03
2017-11-22T05:02:54.358Z,99319.60
2017-11-22T05:05:55.761Z,99322.02
2017-11-22T05:08:57.229Z,99308.16
2017-11-22T05:11:59.370Z,99297.92
2017-11-22T05:15:00.830Z,99304.39
2017-11-22T05:18:02.253Z,99304.69
2017-11-22T05:21:03.746Z,99291.95
2017-11-22T05:24:05.172Z,99302.03
2017-11-22T05:27:06.689Z,99309.28
2017-11-22T05:30:08.809Z,99295.89
2017-11-22T05:33:10.282Z,99303.72
2017-11-22T05:36:11.722Z,99290.95
2017-11-22T05:39:13.177Z,99295.27
2017-11-22T05:42:14.668Z,99291.28
2017-11-22T05:45:16.817Z,99295.77
2017-11-22T05:48:18.276Z,99302.49
2017-11-22T05:51:20.500Z,99292.75
2017-11-22T05:54:22.674Z,99295.45
2017-11-22T05:57:24.122Z,99305.84
2017-11-22T06:00:26.532Z,99297.67
2017-11-22T06:03:27.908Z,99310.33
2017-11-22T06:06:30.122Z,99307.78
2017-11-22T06:09:31.797Z,99294.92
2017-11-22T06:15:42.070Z,99308.27
2017-11-22T06:18:43.464Z,99306.31
2017-11-22T06:21:46.875Z,99306.16
2017-11-22T06:24:48.517Z,99302.80
2017-11-22T06:27:49.948Z,99301.34
2017-11-22T06:30:51.355Z,99304.85
2017-11-22T06:33:52.802Z,99308.62
2017-11-22T06:36:54.197Z,99308.55
2017-11-22T06:39:55.621Z,99322.05
2017-11-22T06:42:57.093Z,99315.78
2017-11-22T06:45:58.534Z,99324.38
2017-11-22T06:49:00.224Z,99319.17
2017-11-22T06:52:01.753Z,99325.61
2017-11-22T06:55:03.252Z,99330.45
2017-11-22T06:58:04.659Z,99332.75
2017-11-22T07:01:06.106Z,99332.34
2017-11-22T07:04:07.735Z,99338.95
2017-11-22T07:07:09.914Z,99343.47
2017-11-22T07:10:11.290Z,99349.58
2017-11-22T07:13:12.676Z,99344.87
2017-11-22T07:16:20.036Z,99344.66
2017-11-22T07:19:22.197Z,99346.12
2017-11-22T07:22:24.101Z,99337.78
2017-11-22T07:25:25.424Z,99346.09
2017-11-22T07:28:26.809Z,99352.89
2017-11-22T07:31:28.126Z,99353.13
2017-11-22T07:34:29.494Z,99348.20
2017-11-22T07:37:35.634Z,99355.41
2017-11-22T07:40:37.030Z,99364.34
2017-11-22T07:43:39.195Z,99356.26
2017-11-22T07:46:41.633Z,99354.07
2017-11-22T07:49:43.076Z,99362.50
2017-11-22T07:52:44.574Z,99356.49
2017-11-22T07:55:47.806Z,99368.75
2017-11-22T07:58:49.150Z,99374.51
2017-11-22T08:01:51.418Z,99375.11
2017-11-22T08:04:53.572Z,99380.19
2017-11-22T08:07:55.091Z,99379.52
2017-11-22T08:10:56.418Z,99381.39
2017-11-22T08:13:57.825Z,99394.66
2017-11-22T08:17:01.130Z,99389.72
2017-11-22T08:20:02.534Z,99390.30
2017-11-22T08:23:03.930Z,99392.88
2017-11-22T08:26:06.257Z,99388.12
2017-11-22T08:29:07.725Z,99385.83
2017-11-22T08:32:09.112Z,99388.59
2017-11-22T08:35:10.532Z,99393.94
2017-11-22T08:38:11.925Z,99400.45
2017-11-22T08:41:13.357Z,99380.19
2017-11-22T08:44:14.728Z,99390.75
2017-11-22T08:47:16.125Z,99392.19
2017-11-22T08:50:17.454Z,99389.79
2017-11-22T08:53:19.577Z,99387.45
2017-11-22T08:56:27.030Z,99393.72
2017-11-22T08:59:28.329Z,99398.92
2017-11-22T09:02:29.779Z,99394.81
2017-11-22T09:05:31.435Z,99397.22
2017-11-22T09:08:32.849Z,99399.64
2017-11-22T09:11:34.228Z,99413.06
2017-11-22T09:14:35.597Z,99413.34
2017-11-22T09:17:37.440Z,99404.53
2017-11-22T09:20:39.149Z,99401.36
2017-11-22T09:23:40.530Z,99411.66
2017-11-22T09:26:42.010Z,99414.41
2017-11-22T09:29:45.321Z,99408.52
2017-11-22T09:32:46.686Z,99394.87
2017-11-22T09:35:48.951Z,99418.02
2017-11-22T09:38:50.339Z,99401.72
2017-11-22T09:41:51.699Z,99406.69
2017-11-22T09:44:53.078Z,99400.73
2017-11-22T09:47:54.476Z,99405.67
2017-11-22T09:50:56.883Z,99406.30
2017-11-22T09:53:59.457Z,99418.78
2017-11-22T09:57:00.881Z,99413.97
2017-11-22T10:00:02.969Z,99413.14
2017-11-22T10:03:04.374Z,99411.36
2017-11-22T10:06:05.770Z,99402.16
2017-11-22T10:09:07.141Z,99395.48
2017-11-22T10:12:08.441Z,99385.60
2017-11-22T10:15:09.841Z,99379.50
2017-11-22T10:18:11.324Z,99389.89
2017-11-22T10:21:12.784Z,99383.59
2017-11-22T10:28:01.564Z,99375.48
2017-11-22T10:31:03.190Z,99371.25
2017-11-22T10:34:04.569Z,99370.94
2017-11-22T10:37:05.970Z,99368.03
2017-11-22T10:40:07.389Z,99373.42
2017-11-22T10:43:09.580Z,99384.31
2017-11-22T10:46:11.029Z,99372.03
2017-11-22T10:49:12.423Z,99374.27
2017-11-22T10:52:13.866Z,99368.11
2017-11-22T10:55:15.295Z,99376.70
2017-11-22T10:58:16.695Z,99381.92
2017-11-22T11:01:18.105Z,99375.91
2017-11-22T11:04:19.590Z,99364.74
2017-11-22T11:07:21.029Z,99356.22
2017-11-22T11:10:22.630Z,99362.72
2017-11-22T11:13:24.818Z,99358.92
2017-11-22T11:16:26.342Z,99346.36
2017-11-22T11:19:27.770Z,99347.88
2017-11-22T11:22:29.143Z,99343.16
2017-11-22T11:25:30.537Z,99339.45
2017-11-22T11:28:31.907Z,99347.25
2017-11-22T11:31:33.321Z,99349.73
2017-11-22T11:34:35.472Z,99344.55
2017-11-22T11:37:36.937Z,99332.17
2017-11-22T11:40:39.136Z,99330.50
2017-11-22T11:43:40.502Z,99332.89
2017-11-22T11:46:42.077Z,99326.22
2017-11-22T11:49:43.491Z,99337.19
2017-11-22T11:52:44.889Z,99322.07
2017-11-22T11:55:47.667Z,99327.53
2017-11-22T11:58:49.710Z,99328.67
2017-11-22T12:01:51.969Z,99322.34
2017-11-22T12:04:53.385Z,99325.92
2017-11-22T12:07:55.930Z,99316.41
2017-11-22T12:10:57.728Z,99313.57
2017-11-22T12:13:59.905Z,99299.44
2017-11-22T12:17:02.065Z,99296.67
2017-11-22T12:20:05.553Z,99296.57
2017-11-22T12:23:12.978Z,99295.48
2017-11-22T12:26:14.895Z,99287.89
2017-11-22T12:29:17.013Z,99284.95
2017-11-22T12:32:18.433Z,99279.61
2017-11-22T12:35:21.731Z,99274.44
2017-11-22T12:38:23.151Z,99274.42
2017-11-22T12:41:24.507Z,99274.02
2017-11-22T12:44:25.986Z,99271.83
2017-11-22T12:47:27.408Z,99268.73
2017-11-22T12:50:28.801Z,99279.28
2017-11-22T12:53:30.986Z,99273.43
2017-11-22T12:56:32.382Z,99276.19
2017-11-22T12:59:33.790Z,99267.22
2017-11-22T13:02:35.117Z,99276.94
2017-11-22T13:05:37.259Z,99263.78
2017-11-22T13:08:38.751Z,99278.94
2017-11-22T13:11:41.031Z,99265.02
2017-11-22T13:14:42.506Z,99262.72
2017-11-22T13:17:44.007Z,99265.55
2017-11-22T13:20:45.401Z,99261.89
2017-11-22T13:23:46.854Z,99248.95
2017-11-22T13:26:48.256Z,99267.61
2017-11-22T13:29:49.697Z,99252.02
2017-11-22T13:32:51.169Z,99242.00
2017-11-22T13:35:52.558Z,99238.72
2017-11-22T13:38:53.976Z,99236.81
2017-11-22T13:41:55.396Z,99237.25
2017-11-22T13:44:56.773Z,99237.17
2017-11-22T13:47:58.957Z,99244.59
2017-11-22T13:51:01.071Z,99242.23
2017-11-22T13:54:02.427Z,99248.25
2017-11-22T13:57:03.860Z,99258.78
2017-11-22T14:00:05.323Z,99247.80
2017-11-22T14:03:06.790Z,99245.09
2017-11-22T14:06:08.269Z,99255.37
2017-11-22T14:09:09.615Z,99248.05
2017-11-22T14:12:11.026Z,99246.86
2017-11-22T14:15:12.373Z,99242.61
2017-11-22T14:18:13.829Z,99235.08
2017-11-22T14:21:15.258Z,99241.72
2017-11-22T14:24:16.743Z,99229.63
2017-11-22T14:27:18.174Z,99226.30
2017-11-22T14:30:19.583Z,99212.97
2017-11-22T14:33:21.043Z,99222.36
2017-11-22T14:36:23.210Z,99218.25
2017-11-22T14:39:25.441Z,99202.72
2017-11-22T14:42:26.948Z,99199.34
2017-11-22T14:45:29.133Z,99205.27
2017-11-22T14:48:30.493Z,99191.91
2017-11-22T14:51:31.909Z,99189.20
2017-11-22T14:54:34.034Z,99186.03
2017-11-22T14:57:35.433Z,99179.16
2017-11-22T15:00:37.527Z,99183.40
2017-11-22T15:03:38.913Z,99181.44
2017-11-22T15:06:40.862Z,99173.58
2017-11-22T15:09:43.062Z,99168.11
2017-11-22T15:12:44.485Z,99169.22
2017-11-22T15:15:45.919Z,99166.47
2017-11-22T15:18:47.403Z,99165.07
2017-11-22T15:21:48.840Z,99158.32
2017-11-22T15:24:50.226Z,99152.81
2017-11-22T15:27:51.702Z,99154.48
2017-11-22T15:30:53.947Z,99151.12
2017-11-22T15:33:55.453Z,99153.78
2017-11-22T15:36:56.919Z,99140.72
2017-11-22T15:39:58.383Z,99154.02
2017-11-22T15:42:59.889Z,99140.46
2017-11-22T15:46:02.038Z,99152.51
2017-11-22T15:49:03.549Z,99149.58
2017-11-22T15:52:04.958Z,99149.88
2017-11-22T15:55:07.099Z,99163.90
2017-11-22T15:58:08.578Z,99158.12
2017-11-22T16:01:10.624Z,99149.23
2017-11-22T16:04:12.286Z,99149.33
2017-11-22T16:07:13.671Z,99147.50
2017-11-22T16:10:15.107Z,99150.21
2017-11-22T16:13:17.257Z,99140.24
2017-11-22T16:16:18.763Z,99145.47
2017-11-22T16:19:20.166Z,99136.86
2017-11-22T16:22:21.707Z,99143.31
2017-11-22T16:25:23.285Z,99132.54
2017-11-22T16:28:24.846Z,99131.80
2017-11-22T16:31:26.962Z,99126.86
2017-11-22T16:34:28.436Z,99119.33
2017-11-22T16:37:29.866Z,99126.59
2017-11-22T16:40:31.278Z,99117.08
2017-11-22T16:43:33.419Z,99103.52
2017-11-22T16:46:35.110Z,99126.23
2017-11-22T16:49:37.251Z,99117.64
2017-11-22T16:52:38.638Z,99111.38
2017-11-22T16:55:40.027Z,99100.49
2017-11-22T16:58:41.397Z,99081.91
2017-11-22T17:01:42.736Z,99079.84
2017-11-22T17:04:44.128Z,99073.08
2017-11-22T17:07:45.609Z,99081.63
2017-11-22T17:10:46.961Z,99066.05
2017-11-22T17:13:48.380Z,99084.21
2017-11-22T17:16:50.538Z,99060.80
2017-11-22T17:19:52.011Z,99069.77
2017-11-22T17:22:53.376Z,99066.23
2017-11-22T17:25:54.781Z,99078.52
2017-11-22T17:28:56.136Z,99068.58
2017-11-22T17:31:57.518Z,99048.74
2017-11-22T17:34:58.922Z,99063.37
2017-11-22T17:38:00.275Z,99052.19
2017-11-22T17:41:01.834Z,99041.21
2017-11-22T17:44:03.354Z,99047.09
2017-11-22T17:47:04.777Z,99035.21
2017-11-22T17:50:06.136Z,99036.28
2017-11-22T17:53:07.746Z,99022.74
2017-11-22T17:56:09.426Z,99030.05
2017-11-22T17:59:13.008Z,99027.61
2017-11-22T18:02:14.407Z,99025.91
2017-11-22T18:05:16.354Z,99022.03
2017-11-22T18:08:20.108Z,99023.84
2017-11-22T18:11:21.529Z,99003.35
2017-11-22T18:14:23.049Z,99020.82
2017-11-22T18:17:24.808Z,99018.78
2017-11-22T18:20:27.235Z,99007.09
2017-11-22T18:23:28.860Z,99029.86
2017-11-22T18:26:30.852Z,99018.37
2017-11-22T18:29:32.901Z,99028.40
2017-11-22T18:32:34.401Z,99025.59
2017-11-22T18:35:36.394Z,99028.86
2017-11-22T18:38:38.595Z,99034.08
2017-11-22T18:41:40.637Z,99032.09
2017-11-22T18:44:42.707Z,99023.02
2017-11-22T18:47:44.145Z,99024.78
2017-11-22T18:50:46.102Z,99019.47
2017-11-22T18:53:47.612Z,99004.63
2017-11-22T18:56:50.221Z,99018.20
2017-11-22T18:59:53.239Z,99004.02
2017-11-22T19:02:56.498Z,99006.41
2017-11-22T19:05:58.858Z,99001.73
2017-11-22T19:09:01.880Z,98986.05
2017-11-22T19:12:04.723Z,98986.87
2017-11-22T19:15:07.221Z,98978.48
2017-11-22T19:18:10.174Z,98976.16
2017-11-22T19:21:13.130Z,98993.54
2017-11-22T19:24:17.512Z,98988.69
2017-11-22T19:27:19.218Z,98975.16
2017-11-22T19:30:24.100Z,98987.89
2017-11-22T19:33:26.000Z,98982.34
2017-11-22T19:36:28.704Z,98987.42
2017-11-22T19:39:32.356Z,98976.67
2017-11-22T19:42:33.790Z,98983.79
2017-11-22T19:45:36.512Z,98965.11
2017-11-22T19:48:38.052Z,98960.80
2017-11-22T19:51:42.023Z,98972.87
2017-11-22T19:54:43.860Z,98956.90
2017-11-22T19:57:45.336Z,98964.55
2017-11-22T20:00:46.936Z,98958.08
2017-11-22T20:03:48.306Z,98979.61
2017-11-22T20:07:08.487Z,98963.39
2017-11-22T20:10:11.347Z,99001.06
2017-11-22T20:13:14.138Z,98983.55
2017-11-22T20:16:16.517Z,98970.13
2017-11-22T20:19:21.270Z,98961.06
2017-11-22T20:22:23.676Z,98962.80
2017-11-22T20:25:26.365Z,98968.16
2017-11-22T20:28:29.063Z,98951.09
2017-11-22T20:31:30.546Z,98953.64
2017-11-22T20:34:33.696Z,98957.44
2017-11-22T20:37:35.361Z,98951.61
2017-11-22T20:40:37.302Z,98942.94
2017-11-22T20:43:40.572Z,98947.40
2017-11-22T20:46:42.082Z,98954.77
2017-11-22T20:49:43.517Z,98954.53
2017-11-22T20:52:45.691Z,98953.41
2017-11-22T20:55:47.185Z,98947.84
2017-11-22T20:58:48.687Z,98951.31
2017-11-22T21:01:50.125Z,98956.42
2017-11-22T21:04:52.229Z,98952.67
2017-11-22T21:07:53.778Z,98940.27
2017-11-22T21:10:55.135Z,98947.34
2017-11-22T21:13:56.681Z,98939.18
2017-11-22T21:16:58.128Z,98949.20
2017-11-22T21:19:59.754Z,98943.91
2017-11-22T21:23:02.045Z,98951.20
2017-11-22T21:26:03.484Z,98952.97
2017-11-22T21:29:05.993Z,98945.08
2017-11-22T21:32:07.853Z,98948.03
2017-11-22T21:35:10.627Z,98936.91
2017-11-22T21:38:12.997Z,98949.84
2017-11-22T21:41:14.732Z,98939.34
2017-11-22T21:44:17.140Z,98944.70
2017-11-22T21:47:18.728Z,98926.17
2017-11-22T21:50:20.579Z,98925.60
2017-11-22T21:53:22.350Z,98920.96
2017-11-22T21:56:24.898Z,98906.76
2017-11-22T21:59:26.994Z,98908.50
2017-11-22T22:02:28.461Z,98907.70
2017-11-22T22:05:29.965Z,98892.93
2017-11-22T22:08:31.397Z,98894.11
2017-11-22T22:11:33.876Z,98888.41
2017-11-22T22:14:35.674Z,98887.35
2017-11-22T22:17:37.707Z,98885.12
2017-11-22T22:20:39.659Z,98886.70
2017-11-22T22:23:41.133Z,98881.88
2017-11-22T22:26:42.647Z,98886.53
2017-11-22T22:29:44.195Z,98878.50
2017-11-22T22:32:45.726Z,98874.20
2017-11-22T22:35:47.574Z,98872.05
2017-11-22T22:38:49.055Z,98862.56
2017-11-22T22:41:50.760Z,98866.05
2017-11-22T22:44:52.980Z,98865.15
2017-11-22T22:47:54.382Z,98855.19
2017-11-22T22:50:56.687Z,98848.80
2017-11-22T22:53:58.180Z,98846.61
2017-11-22T22:56:59.682Z,98861.50
2017-11-22T23:00:01.201Z,98864.62
2017-11-22T23:03:03.444Z,98849.53
2017-11-22T23:06:04.943Z,98836.08
2017-11-22T23:09:06.374Z,98834.23
2017-11-22T23:12:07.891Z,98831.08
2017-11-22T23:15:09.401Z,98832.70
2017-11-22T23:18:11.643Z,98823.39
2017-11-22T23:21:13.119Z,98819.84
2017-11-22T23:24:15.357Z,98813.39
2017-11-22T23:27:16.851Z,98812.80
2017-11-22T23:30:19.034Z,98816.08
2017-11-22T23:33:20.549Z,98818.83
2017-11-22T23:36:22.058Z,98821.53
2017-11-22T23:39:23.605Z,98800.62
2017-11-22T23:42:25.202Z,98811.03
2017-11-22T23:45:26.787Z,98799.47
2017-11-22T23:48:28.257Z,98799.27
2017-11-22T23:51:29.728Z,98807.88
2017-11-22T23:54:31.194Z,98796.18
2017-11-22T23:57:32.688Z,98822.09
